sensor_id;sensor_type;location;lat;lon;timestamp;pressure;altitude;pressure_sealevel;temperature;humidity
3748;BME280;1889;50.058;8.688;2023-07-29T00:00:04;99690.55;;;20.16;98.69
3748;BME280;1889;50.058;8.688;2023-07-29T00:02:34;99685.75;;;20.36;97.76
3748;BME280;1889;50.058;8.688;2023-07-29T00:05:03;99678.03;;;20.24;97.97
3748;BME280;1889;50.058;8.688;2023-07-29T00:07:33;99682.20;;;20.28;98.09
3748;BME280;1889;50.058;8.688;2023-07-29T00:10:02;99679.77;;;20.18;98.84
3748;BME280;1889;50.058;8.688;2023-07-29T00:12:31;99677.54;;;20.39;97.91
3748;BME280;1889;50.058;8.688;2023-07-29T00:15:00;99669.33;;;20.42;97.15
3748;BME280;1889;50.058;8.688;2023-07-29T00:17:29;99663.02;;;20.36;97.42
3748;BME280;1889;50.058;8.688;2023-07-29T00:19:58;99669.04;;;20.39;97.22
3748;BME280;1889;50.058;8.688;2023-07-29T00:22:27;99671.02;;;20.50;96.69
3748;BME280;1889;50.058;8.688;2023-07-29T00:24:56;99671.53;;;20.42;97.11
3748;BME280;1889;50.058;8.688;2023-07-29T00:27:27;99661.06;;;20.52;96.68
3748;BME280;1889;50.058;8.688;2023-07-29T00:29:56;99654.72;;;20.60;96.18
3748;BME280;1889;50.058;8.688;2023-07-29T00:32:27;99652.14;;;20.66;95.71
3748;BME280;1889;50.058;8.688;2023-07-29T00:34:56;99660.55;;;20.67;95.31
3748;BME280;1889;50.058;8.688;2023-07-29T00:37:25;99648.67;;;20.71;94.98
3748;BME280;1889;50.058;8.688;2023-07-29T00:39:54;99642.64;;;20.74;94.67
3748;BME280;1889;50.058;8.688;2023-07-29T00:42:23;99640.83;;;20.75;94.54
3748;BME280;1889;50.058;8.688;2023-07-29T00:44:52;99625.41;;;20.78;94.32
3748;BME280;1889;50.058;8.688;2023-07-29T00:47:22;99625.60;;;20.82;94.14
3748;BME280;1889;50.058;8.688;2023-07-29T00:49:53;99618.30;;;20.84;93.91
3748;BME280;1889;50.058;8.688;2023-07-29T00:52:22;99619.54;;;20.86;93.70
3748;BME280;1889;50.058;8.688;2023-07-29T00:54:51;99619.01;;;20.81;93.90
3748;BME280;1889;50.058;8.688;2023-07-29T00:57:21;99608.25;;;20.75;94.17
3748;BME280;1889;50.058;8.688;2023-07-29T00:59:50;99611.51;;;20.73;94.13
3748;BME280;1889;50.058;8.688;2023-07-29T01:02:19;99610.30;;;20.65;94.72
3748;BME280;1889;50.058;8.688;2023-07-29T01:04:58;99611.84;;;20.62;94.96
3748;BME280;1889;50.058;8.688;2023-07-29T01:07:36;99611.02;;;20.54;95.47
3748;BME280;1889;50.058;8.688;2023-07-29T01:10:18;99629.70;;;20.61;95.15
3748;BME280;1889;50.058;8.688;2023-07-29T01:12:51;99622.86;;;20.57;95.16
3748;BME280;1889;50.058;8.688;2023-07-29T01:15:25;99618.75;;;20.51;95.61
3748;BME280;1889;50.058;8.688;2023-07-29T01:18:09;99617.06;;;20.50;95.50
3748;BME280;1889;50.058;8.688;2023-07-29T01:20:40;99614.88;;;20.50;95.31
3748;BME280;1889;50.058;8.688;2023-07-29T01:23:11;99615.60;;;20.52;95.07
3748;BME280;1889;50.058;8.688;2023-07-29T01:25:40;99619.86;;;20.28;96.08
3748;BME280;1889;50.058;8.688;2023-07-29T01:28:09;99614.33;;;20.31;96.24
3748;BME280;1889;50.058;8.688;2023-07-29T01:30:40;99608.57;;;20.44;95.70
3748;BME280;1889;50.058;8.688;2023-07-29T01:33:26;99607.10;;;20.52;95.00
3748;BME280;1889;50.058;8.688;2023-07-29T01:35:55;99596.87;;;20.59;94.43
3748;BME280;1889;50.058;8.688;2023-07-29T01:38:37;99599.90;;;20.60;94.17
3748;BME280;1889;50.058;8.688;2023-07-29T01:41:08;99596.08;;;20.64;94.07
3748;BME280;1889;50.058;8.688;2023-07-29T01:43:38;99598.75;;;20.64;93.82
3748;BME280;1889;50.058;8.688;2023-07-29T01:46:16;99605.63;;;20.61;93.76
3748;BME280;1889;50.058;8.688;2023-07-29T01:48:45;99601.42;;;20.64;93.76
3748;BME280;1889;50.058;8.688;2023-07-29T01:51:14;99604.25;;;20.68;93.67
3748;BME280;1889;50.058;8.688;2023-07-29T01:53:43;99592.78;;;20.73;93.47
3748;BME280;1889;50.058;8.688;2023-07-29T01:56:12;99589.40;;;20.77;93.04
3748;BME280;1889;50.058;8.688;2023-07-29T01:58:41;99587.48;;;20.79;92.73
3748;BME280;1889;50.058;8.688;2023-07-29T02:01:10;99581.17;;;20.80;92.44
3748;BME280;1889;50.058;8.688;2023-07-29T02:03:39;99579.27;;;20.82;92.41
3748;BME280;1889;50.058;8.688;2023-07-29T02:06:08;99579.98;;;20.84;92.36
3748;BME280;1889;50.058;8.688;2023-07-29T02:08:38;99574.53;;;20.73;92.67
3748;BME280;1889;50.058;8.688;2023-07-29T02:11:08;99568.05;;;20.70;92.96
3748;BME280;1889;50.058;8.688;2023-07-29T02:13:37;99571.58;;;20.70;92.95
3748;BME280;1889;50.058;8.688;2023-07-29T02:16:06;99572.14;;;20.55;93.78
3748;BME280;1889;50.058;8.688;2023-07-29T02:18:35;99580.44;;;20.38;95.33
3748;BME280;1889;50.058;8.688;2023-07-29T02:21:05;99576.77;;;20.46;95.04
3748;BME280;1889;50.058;8.688;2023-07-29T02:23:34;99581.41;;;20.57;94.59
3748;BME280;1889;50.058;8.688;2023-07-29T02:26:03;99574.53;;;20.53;94.66
3748;BME280;1889;50.058;8.688;2023-07-29T02:28:32;99571.05;;;20.45;95.11
3748;BME280;1889;50.058;8.688;2023-07-29T02:31:19;99568.75;;;20.46;95.18
3748;BME280;1889;50.058;8.688;2023-07-29T02:33:48;99570.81;;;20.55;94.80
3748;BME280;1889;50.058;8.688;2023-07-29T02:36:18;99557.02;;;20.62;94.41
3748;BME280;1889;50.058;8.688;2023-07-29T02:38:47;99556.59;;;20.68;94.01
3748;BME280;1889;50.058;8.688;2023-07-29T02:41:16;99559.83;;;20.73;93.61
3748;BME280;1889;50.058;8.688;2023-07-29T02:43:49;99552.42;;;20.76;93.30
3748;BME280;1889;50.058;8.688;2023-07-29T02:46:18;99551.37;;;20.79;93.02
3748;BME280;1889;50.058;8.688;2023-07-29T02:48:47;99553.09;;;20.80;92.86
3748;BME280;1889;50.058;8.688;2023-07-29T02:51:16;99561.02;;;20.81;92.82
3748;BME280;1889;50.058;8.688;2023-07-29T02:53:45;99572.77;;;20.66;93.26
3748;BME280;1889;50.058;8.688;2023-07-29T02:56:15;99574.97;;;20.60;94.33
3748;BME280;1889;50.058;8.688;2023-07-29T02:58:44;99568.80;;;20.59;94.24
3748;BME280;1889;50.058;8.688;2023-07-29T03:01:13;99562.21;;;20.58;94.28
3748;BME280;1889;50.058;8.688;2023-07-29T03:03:42;99553.41;;;20.43;96.30
3748;BME280;1889;50.058;8.688;2023-07-29T03:06:12;99552.08;;;20.36;96.78
3748;BME280;1889;50.058;8.688;2023-07-29T03:08:42;99553.61;;;20.40;96.70
3748;BME280;1889;50.058;8.688;2023-07-29T03:11:13;99549.98;;;20.41;96.91
3748;BME280;1889;50.058;8.688;2023-07-29T03:13:43;99558.95;;;20.33;98.46
3748;BME280;1889;50.058;8.688;2023-07-29T03:16:14;99553.69;;;20.18;99.87
3748;BME280;1889;50.058;8.688;2023-07-29T03:18:44;99538.89;;;20.13;100.00
3748;BME280;1889;50.058;8.688;2023-07-29T03:21:13;99545.86;;;20.15;100.00
3748;BME280;1889;50.058;8.688;2023-07-29T03:23:42;99549.67;;;20.11;100.00
3748;BME280;1889;50.058;8.688;2023-07-29T03:26:11;99539.43;;;19.98;100.00
3748;BME280;1889;50.058;8.688;2023-07-29T03:28:42;99531.41;;;19.98;100.00
3748;BME280;1889;50.058;8.688;2023-07-29T03:31:11;99525.69;;;19.97;100.00
3748;BME280;1889;50.058;8.688;2023-07-29T03:33:40;99526.27;;;20.02;100.00
3748;BME280;1889;50.058;8.688;2023-07-29T03:36:09;99524.77;;;20.11;100.00
3748;BME280;1889;50.058;8.688;2023-07-29T03:38:38;99520.76;;;20.11;100.00
3748;BME280;1889;50.058;8.688;2023-07-29T03:41:09;99523.56;;;20.09;100.00
3748;BME280;1889;50.058;8.688;2023-07-29T03:43:38;99533.61;;;19.99;100.00
3748;BME280;1889;50.058;8.688;2023-07-29T03:46:07;99522.50;;;19.85;100.00
3748;BME280;1889;50.058;8.688;2023-07-29T03:48:36;99526.22;;;19.83;100.00
3748;BME280;1889;50.058;8.688;2023-07-29T03:51:05;99531.50;;;19.63;100.00
3748;BME280;1889;50.058;8.688;2023-07-29T03:53:34;99540.73;;;19.71;100.00
3748;BME280;1889;50.058;8.688;2023-07-29T03:56:03;99538.15;;;19.84;100.00
3748;BME280;1889;50.058;8.688;2023-07-29T03:58:33;99537.17;;;19.92;100.00
3748;BME280;1889;50.058;8.688;2023-07-29T04:01:02;99526.73;;;19.95;100.00
3748;BME280;1889;50.058;8.688;2023-07-29T04:03:33;99517.16;;;20.05;100.00
3748;BME280;1889;50.058;8.688;2023-07-29T04:06:02;99525.40;;;19.95;100.00
3748;BME280;1889;50.058;8.688;2023-07-29T04:08:31;99525.14;;;19.92;100.00
3748;BME280;1889;50.058;8.688;2023-07-29T04:11:00;99524.22;;;19.86;100.00
3748;BME280;1889;50.058;8.688;2023-07-29T04:13:29;99529.60;;;19.99;100.00
3748;BME280;1889;50.058;8.688;2023-07-29T04:15:59;99526.73;;;19.95;100.00
3748;BME280;1889;50.058;8.688;2023-07-29T04:18:28;99521.75;;;20.03;100.00
3748;BME280;1889;50.058;8.688;2023-07-29T04:20:57;99525.59;;;19.99;100.00
3748;BME280;1889;50.058;8.688;2023-07-29T04:23:26;99530.63;;;20.10;100.00
3748;BME280;1889;50.058;8.688;2023-07-29T04:25:55;99529.09;;;20.06;100.00
3748;BME280;1889;50.058;8.688;2023-07-29T04:28:24;99531.95;;;20.03;100.00
3748;BME280;1889;50.058;8.688;2023-07-29T04:30:53;99523.47;;;20.04;100.00
3748;BME280;1889;50.058;8.688;2023-07-29T04:33:23;99529.48;;;20.07;100.00
3748;BME280;1889;50.058;8.688;2023-07-29T04:35:52;99520.25;;;19.99;100.00
3748;BME280;1889;50.058;8.688;2023-07-29T04:38:21;99508.67;;;20.05;100.00
3748;BME280;1889;50.058;8.688;2023-07-29T04:40:50;99513.83;;;20.08;100.00
3748;BME280;1889;50.058;8.688;2023-07-29T04:43:19;99505.72;;;20.03;100.00
3748;BME280;1889;50.058;8.688;2023-07-29T04:45:48;99505.66;;;19.97;100.00
3748;BME280;1889;50.058;8.688;2023-07-29T04:48:17;99508.00;;;19.82;100.00
3748;BME280;1889;50.058;8.688;2023-07-29T04:50:46;99514.30;;;19.81;100.00
3748;BME280;1889;50.058;8.688;2023-07-29T04:53:15;99513.00;;;20.01;100.00
3748;BME280;1889;50.058;8.688;2023-07-29T04:55:45;99509.53;;;19.86;100.00
3748;BME280;1889;50.058;8.688;2023-07-29T04:58:14;99508.98;;;19.74;100.00
3748;BME280;1889;50.058;8.688;2023-07-29T05:00:43;99509.91;;;19.80;100.00
3748;BME280;1889;50.058;8.688;2023-07-29T05:03:12;99520.47;;;19.89;100.00
3748;BME280;1889;50.058;8.688;2023-07-29T05:05:41;99522.48;;;19.92;100.00
3748;BME280;1889;50.058;8.688;2023-07-29T05:08:10;99528.94;;;20.02;100.00
3748;BME280;1889;50.058;8.688;2023-07-29T05:10:39;99516.36;;;20.17;100.00
3748;BME280;1889;50.058;8.688;2023-07-29T05:13:08;99508.11;;;20.34;99.59
3748;BME280;1889;50.058;8.688;2023-07-29T05:15:37;99513.03;;;20.40;98.83
3748;BME280;1889;50.058;8.688;2023-07-29T05:18:06;99512.45;;;20.42;98.16
3748;BME280;1889;50.058;8.688;2023-07-29T05:20:35;99510.07;;;20.38;98.39
3748;BME280;1889;50.058;8.688;2023-07-29T05:23:04;99499.00;;;20.37;98.45
3748;BME280;1889;50.058;8.688;2023-07-29T05:25:33;99501.86;;;20.41;98.70
3748;BME280;1889;50.058;8.688;2023-07-29T05:28:04;99503.72;;;20.46;98.47
3748;BME280;1889;50.058;8.688;2023-07-29T05:30:33;99498.94;;;20.51;98.06
3748;BME280;1889;50.058;8.688;2023-07-29T05:33:04;99510.84;;;20.52;97.86
3748;BME280;1889;50.058;8.688;2023-07-29T05:35:35;99506.02;;;20.45;97.98
3748;BME280;1889;50.058;8.688;2023-07-29T05:38:04;99518.56;;;20.17;99.60
3748;BME280;1889;50.058;8.688;2023-07-29T05:40:35;99521.73;;;20.30;100.00
3748;BME280;1889;50.058;8.688;2023-07-29T05:43:04;99522.20;;;20.36;99.74
3748;BME280;1889;50.058;8.688;2023-07-29T05:45:33;99524.91;;;20.49;98.84
3748;BME280;1889;50.058;8.688;2023-07-29T05:48:02;99519.05;;;20.37;99.49
3748;BME280;1889;50.058;8.688;2023-07-29T05:50:31;99527.74;;;20.33;99.76
3748;BME280;1889;50.058;8.688;2023-07-29T05:53:00;99527.08;;;20.30;100.00
3748;BME280;1889;50.058;8.688;2023-07-29T05:55:29;99531.38;;;20.32;100.00
3748;BME280;1889;50.058;8.688;2023-07-29T05:57:58;99521.67;;;20.24;100.00
3748;BME280;1889;50.058;8.688;2023-07-29T06:00:27;99536.28;;;20.26;100.00
3748;BME280;1889;50.058;8.688;2023-07-29T06:02:56;99537.66;;;20.38;100.00
3748;BME280;1889;50.058;8.688;2023-07-29T06:05:25;99542.86;;;20.34;100.00
3748;BME280;1889;50.058;8.688;2023-07-29T06:07:54;99542.34;;;20.42;100.00
3748;BME280;1889;50.058;8.688;2023-07-29T06:10:23;99544.88;;;20.50;100.00
3748;BME280;1889;50.058;8.688;2023-07-29T06:12:52;99542.34;;;20.54;100.00
3748;BME280;1889;50.058;8.688;2023-07-29T06:15:21;99539.16;;;20.62;100.00
3748;BME280;1889;50.058;8.688;2023-07-29T06:17:50;99539.19;;;20.75;100.00
3748;BME280;1889;50.058;8.688;2023-07-29T06:20:19;99539.00;;;20.71;99.56
3748;BME280;1889;50.058;8.688;2023-07-29T06:22:48;99542.02;;;20.66;99.96
3748;BME280;1889;50.058;8.688;2023-07-29T06:25:17;99545.31;;;20.70;99.84
3748;BME280;1889;50.058;8.688;2023-07-29T06:27:46;99551.27;;;20.80;99.02
3748;BME280;1889;50.058;8.688;2023-07-29T06:30:15;99572.77;;;20.79;98.67
3748;BME280;1889;50.058;8.688;2023-07-29T06:32:45;99598.06;;;20.48;100.00
3748;BME280;1889;50.058;8.688;2023-07-29T06:35:14;99608.63;;;20.23;100.00
3748;BME280;1889;50.058;8.688;2023-07-29T06:37:43;99588.23;;;20.14;100.00
3748;BME280;1889;50.058;8.688;2023-07-29T06:40:12;99569.11;;;20.20;100.00
3748;BME280;1889;50.058;8.688;2023-07-29T06:42:41;99567.97;;;20.25;100.00
3748;BME280;1889;50.058;8.688;2023-07-29T06:45:10;99567.65;;;20.29;100.00
3748;BME280;1889;50.058;8.688;2023-07-29T06:47:39;99572.23;;;20.27;100.00
3748;BME280;1889;50.058;8.688;2023-07-29T06:50:09;99570.26;;;20.24;100.00
3748;BME280;1889;50.058;8.688;2023-07-29T06:52:38;99579.23;;;20.23;100.00
3748;BME280;1889;50.058;8.688;2023-07-29T06:55:08;99562.20;;;20.04;100.00
3748;BME280;1889;50.058;8.688;2023-07-29T06:57:37;99561.70;;;20.11;100.00
3748;BME280;1889;50.058;8.688;2023-07-29T07:00:07;99579.70;;;20.22;100.00
3748;BME280;1889;50.058;8.688;2023-07-29T07:02:37;99579.23;;;20.23;100.00
3748;BME280;1889;50.058;8.688;2023-07-29T07:05:06;99580.69;;;20.14;100.00
3748;BME280;1889;50.058;8.688;2023-07-29T07:07:35;99587.21;;;20.10;100.00
3748;BME280;1889;50.058;8.688;2023-07-29T07:10:09;99583.77;;;20.08;100.00
3748;BME280;1889;50.058;8.688;2023-07-29T07:12:38;99581.13;;;20.01;100.00
3748;BME280;1889;50.058;8.688;2023-07-29T07:15:09;99582.17;;;19.98;100.00
3748;BME280;1889;50.058;8.688;2023-07-29T07:17:43;99583.80;;;20.01;100.00
3748;BME280;1889;50.058;8.688;2023-07-29T07:20:12;99571.05;;;20.11;100.00
3748;BME280;1889;50.058;8.688;2023-07-29T07:22:41;99551.14;;;20.10;100.00
3748;BME280;1889;50.058;8.688;2023-07-29T07:25:10;99568.28;;;20.13;100.00
3748;BME280;1889;50.058;8.688;2023-07-29T07:27:39;99590.11;;;20.19;100.00
3748;BME280;1889;50.058;8.688;2023-07-29T07:30:09;99581.14;;;20.20;100.00
3748;BME280;1889;50.058;8.688;2023-07-29T07:32:38;99575.41;;;20.19;100.00
3748;BME280;1889;50.058;8.688;2023-07-29T07:35:07;99572.01;;;20.17;100.00
3748;BME280;1889;50.058;8.688;2023-07-29T07:37:36;99579.16;;;20.17;100.00
3748;BME280;1889;50.058;8.688;2023-07-29T07:40:06;99594.75;;;20.10;100.00
3748;BME280;1889;50.058;8.688;2023-07-29T07:42:35;99603.38;;;20.21;100.00
3748;BME280;1889;50.058;8.688;2023-07-29T07:45:05;99599.12;;;20.18;100.00
3748;BME280;1889;50.058;8.688;2023-07-29T07:47:34;99595.65;;;20.24;100.00
3748;BME280;1889;50.058;8.688;2023-07-29T07:50:03;99599.78;;;20.15;100.00
3748;BME280;1889;50.058;8.688;2023-07-29T07:52:32;99600.04;;;20.25;100.00
3748;BME280;1889;50.058;8.688;2023-07-29T07:55:01;99604.69;;;20.35;100.00
3748;BME280;1889;50.058;8.688;2023-07-29T07:57:31;99611.95;;;20.33;100.00
3748;BME280;1889;50.058;8.688;2023-07-29T08:00:00;99622.77;;;20.51;100.00
3748;BME280;1889;50.058;8.688;2023-07-29T08:02:29;99622.67;;;20.53;100.00
3748;BME280;1889;50.058;8.688;2023-07-29T08:04:58;99629.80;;;20.40;100.00
3748;BME280;1889;50.058;8.688;2023-07-29T08:07:27;99613.37;;;20.39;100.00
3748;BME280;1889;50.058;8.688;2023-07-29T08:09:56;99611.40;;;20.55;100.00
3748;BME280;1889;50.058;8.688;2023-07-29T08:12:25;99614.80;;;20.64;100.00
3748;BME280;1889;50.058;8.688;2023-07-29T08:14:54;99612.58;;;20.44;100.00
3748;BME280;1889;50.058;8.688;2023-07-29T08:17:23;99606.84;;;20.50;100.00
3748;BME280;1889;50.058;8.688;2023-07-29T08:19:52;99607.53;;;20.66;100.00
3748;BME280;1889;50.058;8.688;2023-07-29T08:22:21;99614.67;;;20.85;100.00
3748;BME280;1889;50.058;8.688;2023-07-29T08:24:50;99609.88;;;20.90;100.00
3748;BME280;1889;50.058;8.688;2023-07-29T08:27:19;99604.10;;;20.97;100.00
3748;BME280;1889;50.058;8.688;2023-07-29T08:29:48;99608.75;;;21.20;100.00
3748;BME280;1889;50.058;8.688;2023-07-29T08:32:17;99608.77;;;21.13;100.00
3748;BME280;1889;50.058;8.688;2023-07-29T08:34:46;99615.11;;;21.24;100.00
3748;BME280;1889;50.058;8.688;2023-07-29T08:37:15;99613.06;;;21.15;100.00
3748;BME280;1889;50.058;8.688;2023-07-29T08:39:44;99605.78;;;20.85;100.00
3748;BME280;1889;50.058;8.688;2023-07-29T08:42:15;99602.94;;;21.13;100.00
3748;BME280;1889;50.058;8.688;2023-07-29T08:44:46;99606.61;;;21.38;100.00
3748;BME280;1889;50.058;8.688;2023-07-29T08:47:16;99604.45;;;21.43;100.00
3748;BME280;1889;50.058;8.688;2023-07-29T08:49:46;99603.32;;;21.52;100.00
3748;BME280;1889;50.058;8.688;2023-07-29T08:52:16;99607.52;;;21.56;100.00
3748;BME280;1889;50.058;8.688;2023-07-29T08:54:45;99605.43;;;21.29;100.00
3748;BME280;1889;50.058;8.688;2023-07-29T08:57:15;99611.70;;;21.48;100.00
3748;BME280;1889;50.058;8.688;2023-07-29T08:59:45;99606.52;;;21.57;100.00
3748;BME280;1889;50.058;8.688;2023-07-29T09:02:14;99610.81;;;21.73;100.00
3748;BME280;1889;50.058;8.688;2023-07-29T09:04:43;99603.98;;;21.92;100.00
3748;BME280;1889;50.058;8.688;2023-07-29T09:07:12;99596.48;;;21.79;97.34
3748;BME280;1889;50.058;8.688;2023-07-29T09:09:42;99591.21;;;22.08;98.76
3748;BME280;1889;50.058;8.688;2023-07-29T09:12:11;99586.99;;;22.17;97.92
3748;BME280;1889;50.058;8.688;2023-07-29T09:14:40;99587.44;;;22.29;97.73
3748;BME280;1889;50.058;8.688;2023-07-29T09:17:10;99589.06;;;22.37;96.86
3748;BME280;1889;50.058;8.688;2023-07-29T09:19:39;99581.53;;;22.19;92.85
3748;BME280;1889;50.058;8.688;2023-07-29T09:22:17;99591.09;;;22.28;93.53
3748;BME280;1889;50.058;8.688;2023-07-29T09:24:40;99587.78;;;22.06;90.60
3748;BME280;1889;50.058;8.688;2023-07-29T09:27:09;99589.30;;;22.16;92.07
3748;BME280;1889;50.058;8.688;2023-07-29T09:29:38;99595.72;;;22.32;91.99
3748;BME280;1889;50.058;8.688;2023-07-29T09:32:22;99582.95;;;22.35;89.67
3748;BME280;1889;50.058;8.688;2023-07-29T09:34:51;99582.09;;;22.35;88.73
3748;BME280;1889;50.058;8.688;2023-07-29T09:37:24;99580.34;;;22.52;89.15
3748;BME280;1889;50.058;8.688;2023-07-29T09:39:53;99573.92;;;22.66;87.65
3748;BME280;1889;50.058;8.688;2023-07-29T09:42:23;99576.49;;;22.67;87.08
3748;BME280;1889;50.058;8.688;2023-07-29T09:44:52;99573.66;;;22.63;84.64
3748;BME280;1889;50.058;8.688;2023-07-29T09:47:25;99575.09;;;22.80;85.70
3748;BME280;1889;50.058;8.688;2023-07-29T09:49:54;99574.87;;;22.54;84.46
3748;BME280;1889;50.058;8.688;2023-07-29T09:52:23;99578.10;;;22.46;83.16
3748;BME280;1889;50.058;8.688;2023-07-29T09:54:53;99579.98;;;22.57;82.63
3748;BME280;1889;50.058;8.688;2023-07-29T09:57:23;99585.14;;;22.71;82.25
3748;BME280;1889;50.058;8.688;2023-07-29T09:59:56;99587.23;;;22.73;82.51
3748;BME280;1889;50.058;8.688;2023-07-29T10:02:26;99583.17;;;22.91;82.48
3748;BME280;1889;50.058;8.688;2023-07-29T10:04:58;99581.42;;;22.50;83.37
3748;BME280;1889;50.058;8.688;2023-07-29T10:07:28;99579.31;;;22.42;84.92
3748;BME280;1889;50.058;8.688;2023-07-29T10:09:58;99574.72;;;22.50;85.30
3748;BME280;1889;50.058;8.688;2023-07-29T10:12:30;99570.11;;;22.57;84.85
3748;BME280;1889;50.058;8.688;2023-07-29T10:15:06;99567.21;;;22.66;84.44
3748;BME280;1889;50.058;8.688;2023-07-29T10:17:33;99560.32;;;22.80;84.67
3748;BME280;1889;50.058;8.688;2023-07-29T10:20:08;99560.70;;;22.87;84.33
3748;BME280;1889;50.058;8.688;2023-07-29T10:22:42;99556.78;;;22.79;84.46
3748;BME280;1889;50.058;8.688;2023-07-29T10:25:15;99552.80;;;22.91;85.01
3748;BME280;1889;50.058;8.688;2023-07-29T10:27:48;99553.79;;;23.06;83.30
3748;BME280;1889;50.058;8.688;2023-07-29T10:30:18;99548.66;;;22.98;82.07
3748;BME280;1889;50.058;8.688;2023-07-29T10:32:47;99545.00;;;22.99;81.33
3748;BME280;1889;50.058;8.688;2023-07-29T10:35:17;99545.22;;;22.96;81.08
3748;BME280;1889;50.058;8.688;2023-07-29T10:37:47;99552.08;;;23.11;81.06
3748;BME280;1889;50.058;8.688;2023-07-29T10:40:18;99554.91;;;23.15;80.75
3748;BME280;1889;50.058;8.688;2023-07-29T10:43:11;99542.69;;;23.28;80.72
3748;BME280;1889;50.058;8.688;2023-07-29T10:45:41;99544.05;;;23.39;79.62
3748;BME280;1889;50.058;8.688;2023-07-29T10:48:11;99543.66;;;23.43;78.98
3748;BME280;1889;50.058;8.688;2023-07-29T10:50:41;99541.89;;;23.49;78.49
3748;BME280;1889;50.058;8.688;2023-07-29T10:53:10;99545.88;;;23.61;76.44
3748;BME280;1889;50.058;8.688;2023-07-29T10:55:39;99534.90;;;23.64;75.55
3748;BME280;1889;50.058;8.688;2023-07-29T10:58:14;99535.50;;;23.62;75.50
3748;BME280;1889;50.058;8.688;2023-07-29T11:00:46;99521.45;;;23.75;76.26
3748;BME280;1889;50.058;8.688;2023-07-29T11:03:15;99526.69;;;23.82;75.24
3748;BME280;1889;50.058;8.688;2023-07-29T11:05:50;99525.74;;;23.66;73.83
3748;BME280;1889;50.058;8.688;2023-07-29T11:08:27;99533.78;;;23.72;73.60
3748;BME280;1889;50.058;8.688;2023-07-29T11:11:12;99531.11;;;23.61;73.87
3748;BME280;1889;50.058;8.688;2023-07-29T11:13:41;99540.39;;;23.62;75.51
3748;BME280;1889;50.058;8.688;2023-07-29T11:16:11;99543.20;;;23.33;78.71
3748;BME280;1889;50.058;8.688;2023-07-29T11:18:41;99539.78;;;22.68;85.51
3748;BME280;1889;50.058;8.688;2023-07-29T11:21:13;99536.05;;;22.76;84.51
3748;BME280;1889;50.058;8.688;2023-07-29T11:23:42;99540.34;;;22.84;84.57
3748;BME280;1889;50.058;8.688;2023-07-29T11:26:11;99538.97;;;22.78;86.59
3748;BME280;1889;50.058;8.688;2023-07-29T11:28:41;99541.67;;;22.49;92.20
3748;BME280;1889;50.058;8.688;2023-07-29T11:31:10;99543.97;;;22.42;95.21
3748;BME280;1889;50.058;8.688;2023-07-29T11:33:39;99545.14;;;22.33;97.40
3748;BME280;1889;50.058;8.688;2023-07-29T11:36:19;99542.42;;;22.57;95.50
3748;BME280;1889;50.058;8.688;2023-07-29T11:38:48;99539.34;;;22.74;94.35
3748;BME280;1889;50.058;8.688;2023-07-29T11:41:21;99535.94;;;22.83;94.11
3748;BME280;1889;50.058;8.688;2023-07-29T11:43:50;99539.03;;;22.60;100.00
3748;BME280;1889;50.058;8.688;2023-07-29T11:46:22;99537.31;;;22.54;100.00
3748;BME280;1889;50.058;8.688;2023-07-29T11:48:53;99544.78;;;22.72;100.00
3748;BME280;1889;50.058;8.688;2023-07-29T11:51:22;99547.69;;;22.99;100.00
3748;BME280;1889;50.058;8.688;2023-07-29T11:53:51;99537.83;;;23.10;100.00
3748;BME280;1889;50.058;8.688;2023-07-29T11:56:20;99542.20;;;23.45;100.00
3748;BME280;1889;50.058;8.688;2023-07-29T11:58:49;99543.31;;;23.70;100.00
3748;BME280;1889;50.058;8.688;2023-07-29T12:01:18;99528.41;;;23.72;97.86
3748;BME280;1889;50.058;8.688;2023-07-29T12:03:49;99519.27;;;23.52;94.14
3748;BME280;1889;50.058;8.688;2023-07-29T12:06:19;99509.12;;;23.61;92.60
3748;BME280;1889;50.058;8.688;2023-07-29T12:08:48;99508.86;;;23.70;90.89
3748;BME280;1889;50.058;8.688;2023-07-29T12:11:17;99513.52;;;23.73;88.84
3748;BME280;1889;50.058;8.688;2023-07-29T12:13:47;99511.53;;;23.81;89.50
3748;BME280;1889;50.058;8.688;2023-07-29T12:16:17;99505.93;;;24.10;89.62
3748;BME280;1889;50.058;8.688;2023-07-29T12:18:46;99507.28;;;24.16;93.29
3748;BME280;1889;50.058;8.688;2023-07-29T12:21:17;99506.75;;;24.16;90.88
3748;BME280;1889;50.058;8.688;2023-07-29T12:23:46;99492.84;;;24.22;86.44
3748;BME280;1889;50.058;8.688;2023-07-29T12:26:15;99501.98;;;24.31;86.46
3748;BME280;1889;50.058;8.688;2023-07-29T12:28:47;99483.77;;;24.18;82.81
3748;BME280;1889;50.058;8.688;2023-07-29T12:31:16;99484.91;;;24.21;78.93
3748;BME280;1889;50.058;8.688;2023-07-29T12:33:45;99474.39;;;24.12;76.50
3748;BME280;1889;50.058;8.688;2023-07-29T12:36:14;99476.84;;;24.42;77.79
3748;BME280;1889;50.058;8.688;2023-07-29T12:38:43;99478.22;;;24.78;76.87
3748;BME280;1889;50.058;8.688;2023-07-29T12:41:13;99468.34;;;24.93;72.48
3748;BME280;1889;50.058;8.688;2023-07-29T12:43:42;99465.33;;;25.17;69.46
3748;BME280;1889;50.058;8.688;2023-07-29T12:46:11;99469.16;;;25.39;68.10
3748;BME280;1889;50.058;8.688;2023-07-29T12:48:40;99460.97;;;25.51;65.43
3748;BME280;1889;50.058;8.688;2023-07-29T12:51:09;99459.84;;;25.53;61.57
3748;BME280;1889;50.058;8.688;2023-07-29T12:53:39;99454.94;;;25.68;62.03
3748;BME280;1889;50.058;8.688;2023-07-29T12:56:08;99452.24;;;25.68;60.09
3748;BME280;1889;50.058;8.688;2023-07-29T12:58:37;99458.88;;;26.08;61.68
3748;BME280;1889;50.058;8.688;2023-07-29T13:01:06;99462.98;;;26.12;59.19
3748;BME280;1889;50.058;8.688;2023-07-29T13:03:36;99462.02;;;26.32;59.94
3748;BME280;1889;50.058;8.688;2023-07-29T13:06:05;99454.60;;;26.44;57.05
3748;BME280;1889;50.058;8.688;2023-07-29T13:08:34;99460.53;;;26.34;57.88
3748;BME280;1889;50.058;8.688;2023-07-29T13:11:04;99458.50;;;26.55;58.17
3748;BME280;1889;50.058;8.688;2023-07-29T13:13:33;99451.64;;;26.18;54.82
3748;BME280;1889;50.058;8.688;2023-07-29T13:16:02;99465.58;;;25.79;55.08
3748;BME280;1889;50.058;8.688;2023-07-29T13:18:32;99465.08;;;25.79;55.85
3748;BME280;1889;50.058;8.688;2023-07-29T13:21:01;99458.98;;;25.87;54.78
3748;BME280;1889;50.058;8.688;2023-07-29T13:23:30;99460.92;;;25.91;54.01
3748;BME280;1889;50.058;8.688;2023-07-29T13:25:59;99459.72;;;25.99;51.51
3748;BME280;1889;50.058;8.688;2023-07-29T13:28:28;99454.53;;;25.92;50.61
3748;BME280;1889;50.058;8.688;2023-07-29T13:30:57;99455.31;;;25.98;49.71